createdAt,value
2022-09-06T00:03:16.743Z,6.29
2022-09-06T00:08:19.651Z,6.14
2022-09-06T00:13:22.670Z,6.05
2022-09-06T00:18:25.662Z,5.95
2022-09-06T00:23:28.595Z,5.90
2022-09-06T00:28:31.574Z,5.86
2022-09-06T00:33:34.474Z,5.77
2022-09-06T00:38:38.169Z,5.65
2022-09-06T00:43:42.026Z,5.53
2022-09-06T00:48:46.872Z,5.42
2022-09-06T00:53:50.918Z,5.34
2022-09-06T00:58:54.931Z,5.29
2022-09-06T01:03:58.044Z,5.27
2022-09-06T01:09:27.774Z,5.23
2022-09-06T01:14:50.283Z,5.24
2022-09-06T01:20:14.958Z,5.27
2022-09-06T01:25:31.269Z,5.32
2022-09-06T01:30:39.085Z,5.34
2022-09-06T01:35:49.776Z,5.33
2022-09-06T01:40:52.783Z,5.32
2022-09-06T01:46:23.882Z,5.29
2022-09-06T01:51:47.847Z,5.27
2022-09-06T01:57:23.627Z,5.20
2022-09-06T02:02:26.768Z,5.12
2022-09-06T02:07:33.012Z,5.03
2022-09-06T02:12:39.671Z,4.97
2022-09-06T02:17:53.362Z,4.97
2022-09-06T02:22:59.681Z,5.07
2022-09-06T02:28:03.313Z,5.11
2022-09-06T02:33:10.997Z,5.10
2022-09-06T02:38:14.721Z,5.02
2022-09-06T02:43:17.714Z,4.91
2022-09-06T02:48:20.750Z,4.83
2022-09-06T02:53:23.728Z,4.89
2022-09-06T02:58:27.454Z,4.96
2022-09-06T03:03:30.659Z,5.08
2022-09-06T03:08:34.483Z,5.16
2022-09-06T03:13:37.387Z,5.12
2022-09-06T03:18:40.601Z,5.06
2022-09-06T03:23:43.618Z,5.00
2022-09-06T03:28:46.717Z,4.97
2022-09-06T03:33:49.725Z,4.91
2022-09-06T03:38:54.270Z,4.82
2022-09-06T03:43:57.482Z,4.72
2022-09-06T03:49:00.583Z,4.57
2022-09-06T03:54:03.487Z,4.45
2022-09-06T03:59:06.508Z,4.39
2022-09-06T04:04:10.029Z,4.32
2022-09-06T04:09:14.092Z,4.47
2022-09-06T04:14:17.153Z,5.28
2022-09-06T04:19:20.158Z,6.63
2022-09-06T04:24:23.163Z,7.93
2022-09-06T04:29:26.170Z,9.14
2022-09-06T04:34:29.176Z,10.12
2022-09-06T04:39:32.337Z,10.94
2022-09-06T04:44:35.395Z,12.00
2022-09-06T04:49:39.016Z,13.20
2022-09-06T04:54:42.124Z,14.41
2022-09-06T04:59:45.026Z,15.52
2022-09-06T05:04:50.410Z,16.22
2022-09-06T05:09:53.497Z,16.76
2022-09-06T05:14:56.614Z,17.40
2022-09-06T05:19:59.632Z,18.33
2022-09-06T05:25:03.643Z,18.56
2022-09-06T05:30:07.549Z,19.06
2022-09-06T05:35:10.580Z,19.79
2022-09-06T05:40:13.583Z,20.48
2022-09-06T05:45:17.309Z,21.03
2022-09-06T05:50:20.522Z,21.18
2022-09-06T05:55:23.732Z,21.23
2022-09-06T06:00:26.735Z,21.31
2022-09-06T06:05:29.845Z,21.49
2022-09-06T06:10:36.660Z,21.56
2022-09-06T06:15:41.589Z,22.01
2022-09-06T06:20:44.598Z,22.78
2022-09-06T06:25:47.510Z,23.21
2022-09-06T06:30:50.509Z,23.54
2022-09-06T06:35:58.732Z,23.33
2022-09-06T06:41:06.420Z,23.19
2022-09-06T06:46:12.432Z,23.33
2022-09-06T06:51:18.306Z,23.28
2022-09-06T06:56:22.472Z,23.12
2022-09-06T07:01:27.659Z,22.98
2022-09-06T07:11:54.957Z,23.15
2022-09-06T07:16:59.570Z,23.22
2022-09-06T07:22:04.625Z,23.28
2022-09-06T07:32:34.981Z,23.17
2022-09-06T07:37:37.997Z,23.11
2022-09-06T07:42:43.282Z,23.27
2022-09-06T07:53:13.825Z,22.83
2022-09-06T07:58:18.794Z,23.04
2022-09-06T08:03:21.736Z,23.42
2022-09-06T08:13:51.507Z,23.85
2022-09-06T08:18:56.990Z,23.79
2022-09-06T08:24:02.812Z,23.66
2022-09-06T08:29:07.810Z,23.57
2022-09-06T08:34:14.756Z,23.50
2022-09-06T08:39:17.930Z,22.91
2022-09-06T08:50:02.746Z,20.48
2022-09-06T08:55:26.195Z,19.69
2022-09-06T09:00:31.207Z,18.64
2022-09-06T09:05:36.506Z,18.02
2022-09-06T09:10:52.916Z,17.60
2022-09-06T09:15:55.874Z,17.35
2022-09-06T09:20:59.528Z,17.43
2022-09-06T09:26:12.385Z,17.56
2022-09-06T09:31:33.810Z,17.47
2022-09-06T09:36:37.451Z,17.39
2022-09-06T09:41:43.764Z,17.46
2022-09-06T09:46:46.851Z,17.74
2022-09-06T09:52:14.611Z,17.93
2022-09-06T09:57:18.865Z,18.15
2022-09-06T10:02:28.565Z,18.44
2022-09-06T10:07:33.772Z,18.95
2022-09-06T10:12:42.615Z,19.37
2022-09-06T10:17:48.592Z,19.43
2022-09-06T10:23:05.190Z,19.34
2022-09-06T10:28:31.365Z,19.04
2022-09-06T10:34:00.380Z,19.36
2022-09-06T10:39:26.870Z,19.69
2022-09-06T10:44:48.787Z,19.72
2022-09-06T10:49:56.790Z,19.65
2022-09-06T10:55:04.835Z,19.59
2022-09-06T11:00:13.762Z,19.35
2022-09-06T11:05:40.835Z,19.21
2022-09-06T11:10:48.324Z,19.27
2022-09-06T11:16:04.835Z,19.50
2022-09-06T11:21:35.952Z,19.57
2022-09-06T11:27:20.228Z,19.57
2022-09-06T11:32:30.092Z,19.52
2022-09-06T11:37:36.681Z,19.48
2022-09-06T11:42:45.218Z,19.44
2022-09-06T11:47:52.497Z,19.31
2022-09-06T11:52:55.532Z,19.17
2022-09-06T11:58:00.687Z,19.34
2022-09-06T12:08:34.365Z,19.60
2022-09-06T12:13:46.365Z,19.77
2022-09-06T12:18:49.279Z,19.98
2022-09-06T12:23:52.305Z,19.68
2022-09-06T12:28:56.810Z,19.17
2022-09-06T12:34:09.039Z,18.62
2022-09-06T12:39:14.654Z,18.08
2022-09-06T12:44:22.798Z,17.69
2022-09-06T12:49:25.742Z,17.52
2022-09-06T12:54:29.364Z,17.79
2022-09-06T12:59:33.773Z,18.19
2022-09-06T13:04:46.650Z,18.62
2022-09-06T13:09:54.361Z,19.05
2022-09-06T13:15:03.497Z,19.28
2022-09-06T13:20:22.860Z,19.44
2022-09-06T13:25:26.465Z,19.55
2022-09-06T13:30:42.261Z,19.69
2022-09-06T13:35:46.220Z,19.71
2022-09-06T13:46:15.260Z,19.85
2022-09-06T13:51:18.613Z,20.04
2022-09-06T13:56:24.389Z,20.16
2022-09-06T14:01:27.672Z,20.27
2022-09-06T14:06:33.574Z,20.35
2022-09-06T14:11:39.962Z,20.49
2022-09-06T14:16:42.867Z,20.38
2022-09-06T14:21:45.978Z,20.23
2022-09-06T14:26:49.493Z,20.00
2022-09-06T14:31:53.022Z,19.81
2022-09-06T14:36:56.020Z,19.65
2022-09-06T14:41:59.231Z,19.32
2022-09-06T14:47:02.239Z,19.04
2022-09-06T14:52:05.245Z,18.73
2022-09-06T14:57:08.252Z,18.48
2022-09-06T15:02:11.536Z,18.28
2022-09-06T15:07:14.672Z,18.16
2022-09-06T15:12:18.353Z,18.04
2022-09-06T15:17:21.428Z,17.92
2022-09-06T15:22:24.509Z,17.79
2022-09-06T15:27:28.451Z,17.71
2022-09-06T15:32:31.457Z,17.69
2022-09-06T15:37:34.863Z,17.62
2022-09-06T15:42:37.877Z,17.54
2022-09-06T15:47:40.890Z,17.45
2022-09-06T15:52:43.880Z,17.34
2022-09-06T15:57:47.090Z,17.21
2022-09-06T16:02:50.559Z,17.06
2022-09-06T16:07:53.722Z,16.94
2022-09-06T16:12:56.724Z,16.80
2022-09-06T16:18:05.233Z,16.63
2022-09-06T16:23:08.303Z,16.46
2022-09-06T16:28:11.276Z,16.30
2022-09-06T16:33:14.279Z,16.10
2022-09-06T16:38:17.284Z,15.90
2022-09-06T16:43:20.249Z,15.67
2022-09-06T16:48:23.234Z,15.45
2022-09-06T16:53:26.205Z,15.23
2022-09-06T16:58:30.279Z,15.02
2022-09-06T17:03:34.979Z,14.84
2022-09-06T17:08:37.990Z,14.63
2022-09-06T17:13:42.257Z,14.43
2022-09-06T17:18:45.329Z,14.22
2022-09-06T17:23:49.360Z,13.97
2022-09-06T17:28:52.471Z,13.73
2022-09-06T17:33:55.310Z,13.52
2022-09-06T17:39:04.486Z,13.31
2022-09-06T17:44:11.251Z,13.13
2022-09-06T17:49:15.500Z,12.94
2022-09-06T17:54:18.962Z,12.75
2022-09-06T17:59:21.931Z,12.58
2022-09-06T18:04:24.879Z,12.39
2022-09-06T18:09:28.503Z,12.20
2022-09-06T18:14:31.405Z,11.99
2022-09-06T18:19:34.431Z,11.79
2022-09-06T18:24:38.492Z,11.68
2022-09-06T18:29:41.457Z,11.60
2022-09-06T18:34:45.069Z,11.51
2022-09-06T18:39:48.062Z,11.43
2022-09-06T18:44:51.445Z,11.32
2022-09-06T18:49:54.403Z,11.20
2022-09-06T18:54:57.335Z,11.08
2022-09-06T19:00:00.524Z,10.96
2022-09-06T19:05:03.629Z,10.86
2022-09-06T19:10:07.067Z,10.79
2022-09-06T19:15:11.080Z,10.68
2022-09-06T19:20:14.180Z,10.59
2022-09-06T19:25:18.223Z,10.51
2022-09-06T19:30:21.210Z,10.44
2022-09-06T19:35:24.221Z,10.35
2022-09-06T19:40:27.229Z,10.19
2022-09-06T19:45:30.136Z,10.00
2022-09-06T19:50:34.780Z,9.89
2022-09-06T19:55:37.782Z,9.79
2022-09-06T20:00:42.792Z,9.70
2022-09-06T20:05:45.842Z,9.65
2022-09-06T20:10:57.451Z,9.58
2022-09-06T20:16:02.533Z,9.49
2022-09-06T20:21:06.350Z,9.40
2022-09-06T20:26:10.878Z,9.33
2022-09-06T20:31:16.878Z,9.23
2022-09-06T20:36:22.826Z,9.17
2022-09-06T20:41:27.180Z,9.09
2022-09-06T20:46:32.994Z,8.98
2022-09-06T20:51:37.378Z,8.85
2022-09-06T20:56:42.239Z,8.71
2022-09-06T21:01:46.766Z,8.60
2022-09-06T21:06:52.330Z,8.57
2022-09-06T21:11:55.441Z,8.50
2022-09-06T21:16:58.450Z,8.34
2022-09-06T21:22:01.453Z,8.18
2022-09-06T21:27:04.662Z,8.05
2022-09-06T21:32:07.880Z,7.96
2022-09-06T21:37:11.087Z,7.87
2022-09-06T21:42:14.094Z,7.75
2022-09-06T21:47:17.171Z,7.61
2022-09-06T21:52:20.209Z,7.49
2022-09-06T21:57:23.230Z,7.38
2022-09-06T22:02:27.613Z,7.29
2022-09-06T22:07:31.068Z,7.20
2022-09-06T22:12:34.079Z,7.11
2022-09-06T22:17:37.830Z,7.04
2022-09-06T22:22:40.809Z,6.95
2022-09-06T22:27:43.814Z,6.83
2022-09-06T22:32:47.046Z,6.76
2022-09-06T22:37:50.269Z,6.68
2022-09-06T22:42:53.573Z,6.61
2022-09-06T22:47:56.552Z,6.56
2022-09-06T22:52:59.562Z,6.41
2022-09-06T22:58:03.518Z,6.25
2022-09-06T23:03:06.496Z,6.15
2022-09-06T23:08:10.113Z,6.06
2022-09-06T23:13:13.129Z,5.98
2022-09-06T23:18:16.129Z,5.92
2022-09-06T23:23:19.133Z,5.79
2022-09-06T23:28:22.175Z,5.65
2022-09-06T23:33:25.153Z,5.52
2022-09-06T23:38:28.408Z,5.48
2022-09-06T23:43:32.048Z,5.44
2022-09-06T23:48:35.705Z,5.37
2022-09-06T23:53:39.736Z,5.26
2022-09-06T23:58:42.737Z,5.24
